• Join FlightAware (Why Join?)
  • Login
  • US Flag 
05:22AM EDT


 

Airport Tracker/Info


-or-


 

Live Flight TrackerFlight Track Log ✈ TAM3871 ✈ 09-Jul-2013 ✈ SBBE / BEL - SBMA / MAB

Flight Track Log - Related Links

Times and Time Zones

All times are in EDT time to prevent confusion due to time zone crossing. See the TAM3871 flight status page for this flight to view local times or setup timezone preferences in your user account.

Time Position Orientation Groundspeed Altitude Reporting Facility
EDT Latitude Longitude Course Direction KTS MPH feet Rate Location/Type
01:31PM -3.5223 -48.8311 189° South  Level Estimated
01:32PM -3.6197 -48.8472 189° South  Level Estimated
01:33PM -3.7171 -48.8634 189° South  Level Estimated
01:34PM -3.8145 -48.8796 189° South  Level Estimated
01:35PM -3.9120 -48.8957 189° South  Level Estimated
01:36PM -4.0094 -48.9119 189° South  Level Estimated
01:37PM -4.1068 -48.9281 189° South  Level Estimated
01:38PM -4.2042 -48.9443 189° South  Level Estimated
01:39PM -4.3016 -48.9604 189° South  Level Estimated
01:40PM -4.3990 -48.9766 189° South  Level Estimated
01:41PM -4.4964 -48.9928 189° South  Level Estimated
01:42PM -4.5938 -49.0090 189° South  Level Estimated
01:43PM -4.6912 -49.0252 189° South  Level Estimated
01:44PM -4.7887 -49.0414 189° South  Level Estimated
01:45PM -4.8861 -49.0576 189° South  Level Estimated
01:46PM -4.9834 -49.0739 189° South  Level Estimated
01:47PM -5.0809 -49.0901 189° South  Level Estimated
01:48PM -5.1782 -49.1063 189° South  Level Estimated
01:49PM -5.2757 -49.1225 189° South  Level Estimated
01:50PM -5.3686 -49.1380 189° South  Level Estimated
01:51PM -5.3686 -49.1380 79° East  Level Estimated
01:52PM -5.3686 -49.1380 79° East  Level Estimated
01:53PM -5.3686 -49.1380 79° East  Level Estimated
01:54PM -5.3686 -49.1380 79° East  Level Estimated
01:55PM -5.3686 -49.1380 79° East  Level Estimated
01:56PM -5.3686 -49.1380 79° East  Level Estimated
01:57PM -5.3686 -49.1380 79° East  Level Estimated
01:58PM -5.3686 -49.1380 79° East  Level Estimated
01:59PM -5.3686 -49.1380 79° East  Level Estimated
02:00PM -5.3686 -49.1380 79° East  Level Estimated
02:01PM -5.3686 -49.1380 79° East  Level Estimated
02:02PM -5.3686 -49.1380 79° East  Level Estimated
02:03PM -5.3686 -49.1380 79° East  Level Estimated
02:04PM -5.3686 -49.1380 79° East  Level Estimated
02:05PM -5.3686 -49.1380 79° East  Level Estimated
02:06PM -5.3686 -49.1380 79° East  Level Estimated